sensor_id;sensor_type;location;lat;lon;timestamp;pressure;altitude;pressure_sealevel;temperature;humidity
61474;BME280;53694;49.784;30.150;2022-09-03T00:00:27;100258.09;;;14.07;50.52
61474;BME280;53694;49.784;30.150;2022-09-03T00:01:39;100260.41;;;14.05;50.72
61474;BME280;53694;49.784;30.150;2022-09-03T00:02:47;100259.20;;;14.03;50.43
61474;BME280;53694;49.784;30.150;2022-09-03T00:03:54;100258.76;;;14.00;50.15
61474;BME280;53694;49.784;30.150;2022-09-03T00:06:14;100256.31;;;13.95;50.60
61474;BME280;53694;49.784;30.150;2022-09-03T00:07:25;100260.25;;;13.94;52.88
61474;BME280;53694;49.784;30.150;2022-09-03T00:08:29;100253.93;;;13.94;53.98
61474;BME280;53694;49.784;30.150;2022-09-03T00:09:38;100263.42;;;13.96;54.78
61474;BME280;53694;49.784;30.150;2022-09-03T00:11:00;100263.87;;;13.98;54.61
61474;BME280;53694;49.784;30.150;2022-09-03T00:13:46;100268.34;;;14.07;54.26
61474;BME280;53694;49.784;30.150;2022-09-03T00:15:06;100272.38;;;14.13;53.11
61474;BME280;53694;49.784;30.150;2022-09-03T00:16:12;100264.56;;;14.18;53.33
61474;BME280;53694;49.784;30.150;2022-09-03T00:17:17;100272.19;;;14.25;53.83
61474;BME280;53694;49.784;30.150;2022-09-03T00:18:21;100263.16;;;14.28;53.44
61474;BME280;53694;49.784;30.150;2022-09-03T00:19:33;100264.75;;;14.29;51.78
61474;BME280;53694;49.784;30.150;2022-09-03T00:22:09;100266.28;;;14.26;50.08
61474;BME280;53694;49.784;30.150;2022-09-03T00:23:15;100272.25;;;14.29;50.68
61474;BME280;53694;49.784;30.150;2022-09-03T00:24:20;100267.92;;;14.31;50.70
61474;BME280;53694;49.784;30.150;2022-09-03T00:25:29;100270.28;;;14.29;51.31
61474;BME280;53694;49.784;30.150;2022-09-03T00:26:33;100265.48;;;14.26;51.85
61474;BME280;53694;49.784;30.150;2022-09-03T00:27:38;100267.84;;;14.24;52.36
61474;BME280;53694;49.784;30.150;2022-09-03T00:29:00;100269.42;;;14.25;53.04
61474;BME280;53694;49.784;30.150;2022-09-03T00:30:10;100269.42;;;14.25;53.04
61474;BME280;53694;49.784;30.150;2022-09-03T00:31:33;100268.25;;;14.26;53.51
61474;BME280;53694;49.784;30.150;2022-09-03T00:34:05;100268.75;;;14.32;54.22
61474;BME280;53694;49.784;30.150;2022-09-03T00:35:10;100273.89;;;14.33;53.83
61474;BME280;53694;49.784;30.150;2022-09-03T00:37:18;100270.34;;;14.33;53.32
61474;BME280;53694;49.784;30.150;2022-09-03T00:38:20;100270.34;;;14.33;53.43
61474;BME280;53694;49.784;30.150;2022-09-03T00:39:23;100271.86;;;14.30;53.35
61474;BME280;53694;49.784;30.150;2022-09-03T00:43:12;100284.09;;;14.29;54.12
61474;BME280;53694;49.784;30.150;2022-09-03T00:44:12;100283.65;;;14.27;54.88
61474;BME280;53694;49.784;30.150;2022-09-03T00:45:32;100289.94;;;14.24;52.76
61474;BME280;53694;49.784;30.150;2022-09-03T00:46:52;100285.14;;;14.21;51.74
61474;BME280;53694;49.784;30.150;2022-09-03T00:48:25;100295.46;;;14.24;51.26
61474;BME280;53694;49.784;30.150;2022-09-03T00:50:03;100299.43;;;14.26;54.51
61474;BME280;53694;49.784;30.150;2022-09-03T00:55:12;100307.11;;;14.14;57.12
61474;BME280;53694;49.784;30.150;2022-09-03T00:57:45;100307.01;;;14.07;57.68
61474;BME280;53694;49.784;30.150;2022-09-03T00:59:06;100303.01;;;14.04;57.28
61474;BME280;53694;49.784;30.150;2022-09-03T01:00:12;100309.26;;;14.01;57.34
61474;BME280;53694;49.784;30.150;2022-09-03T01:01:35;100308.47;;;14.00;57.24
61474;BME280;53694;49.784;30.150;2022-09-03T01:04:06;100305.70;;;14.00;57.97
61474;BME280;53694;49.784;30.150;2022-09-03T01:05:17;100313.20;;;14.00;59.30
61474;BME280;53694;49.784;30.150;2022-09-03T01:10:07;100319.27;;;13.86;59.97
61474;BME280;53694;49.784;30.150;2022-09-03T01:11:24;100311.33;;;13.85;60.23
61474;BME280;53694;49.784;30.150;2022-09-03T01:15:52;100310.77;;;13.75;58.91
61474;BME280;53694;49.784;30.150;2022-09-03T01:19:43;100324.50;;;13.72;58.50
61474;BME280;53694;49.784;30.150;2022-09-03T01:28:07;100328.81;;;13.69;60.06
61474;BME280;53694;49.784;30.150;2022-09-03T01:30:18;100324.39;;;13.65;60.28
61474;BME280;53694;49.784;30.150;2022-09-03T01:31:35;100329.91;;;13.65;60.60
61474;BME280;53694;49.784;30.150;2022-09-03T01:33:00;100322.80;;;13.64;60.50
61474;BME280;53694;49.784;30.150;2022-09-03T01:38:55;100319.02;;;13.53;61.47
61474;BME280;53694;49.784;30.150;2022-09-03T01:44:23;100321.78;;;13.53;62.46
61474;BME280;53694;49.784;30.150;2022-09-03T01:45:58;100318.57;;;13.50;62.61
61474;BME280;53694;49.784;30.150;2022-09-03T01:47:04;100313.88;;;13.51;62.20
61474;BME280;53694;49.784;30.150;2022-09-03T01:48:12;100318.57;;;13.50;62.31
61474;BME280;53694;49.784;30.150;2022-09-03T01:49:18;100317.78;;;13.50;62.12
61474;BME280;53694;49.784;30.150;2022-09-03T01:50:24;100315.81;;;13.50;63.41
61474;BME280;53694;49.784;30.150;2022-09-03T01:51:29;100314.59;;;13.48;63.14
61474;BME280;53694;49.784;30.150;2022-09-03T01:52:58;100316.91;;;13.46;62.93
61474;BME280;53694;49.784;30.150;2022-09-03T01:54:18;100314.52;;;13.44;62.94
61474;BME280;53694;49.784;30.150;2022-09-03T01:55:50;100312.14;;;13.43;63.74
61474;BME280;53694;49.784;30.150;2022-09-03T01:57:37;100315.70;;;13.43;63.72
61474;BME280;53694;49.784;30.150;2022-09-03T01:59:25;100313.66;;;13.40;63.86
61474;BME280;53694;49.784;30.150;2022-09-03T02:00:28;100327.82;;;13.39;64.03
61474;BME280;53694;49.784;30.150;2022-09-03T02:01:44;100326.58;;;13.36;63.53
61474;BME280;53694;49.784;30.150;2022-09-03T02:02:48;100317.88;;;13.34;64.03
61474;BME280;53694;49.784;30.150;2022-09-03T02:03:51;100325.70;;;13.32;64.21
61474;BME280;53694;49.784;30.150;2022-09-03T02:05:04;100322.52;;;13.30;64.42
61474;BME280;53694;49.784;30.150;2022-09-03T02:06:07;100324.83;;;13.28;64.60
61474;BME280;53694;49.784;30.150;2022-09-03T02:07:10;100314.09;;;13.23;64.11
61474;BME280;53694;49.784;30.150;2022-09-03T02:08:12;100329.02;;;13.22;64.40
61474;BME280;53694;49.784;30.150;2022-09-03T02:09:15;100313.98;;;13.19;64.25
61474;BME280;53694;49.784;30.150;2022-09-03T02:10:21;100319.50;;;13.19;64.56
61474;BME280;53694;49.784;30.150;2022-09-03T02:11:23;100317.91;;;13.18;65.08
61474;BME280;53694;49.784;30.150;2022-09-03T02:12:28;100316.32;;;13.17;65.61
61474;BME280;53694;49.784;30.150;2022-09-03T02:13:41;100314.70;;;13.16;65.58
61474;BME280;53694;49.784;30.150;2022-09-03T02:14:39;100315.07;;;13.15;65.90
61474;BME280;53694;49.784;30.150;2022-09-03T02:15:43;100316.23;;;13.14;65.50
61474;BME280;53694;49.784;30.150;2022-09-03T02:16:45;100310.72;;;13.14;64.82
61474;BME280;53694;49.784;30.150;2022-09-03T02:17:48;100311.06;;;13.12;64.95
61474;BME280;53694;49.784;30.150;2022-09-03T02:18:56;100313.03;;;13.12;64.94
61474;BME280;53694;49.784;30.150;2022-09-03T02:20:03;100304.33;;;13.10;65.15
61474;BME280;53694;49.784;30.150;2022-09-03T02:21:05;100309.39;;;13.08;64.85
61474;BME280;53694;49.784;30.150;2022-09-03T02:22:07;100303.45;;;13.06;65.27
61474;BME280;53694;49.784;30.150;2022-09-03T02:23:09;100312.89;;;13.05;64.99
61474;BME280;53694;49.784;30.150;2022-09-03T02:24:11;100299.11;;;13.05;65.25
61474;BME280;53694;49.784;30.150;2022-09-03T02:25:13;100299.45;;;13.03;65.70
61474;BME280;53694;49.784;30.150;2022-09-03T02:26:20;100300.20;;;13.00;65.24
61474;BME280;53694;49.784;30.150;2022-09-03T02:27:21;100300.54;;;12.98;65.41
61474;BME280;53694;49.784;30.150;2022-09-03T02:28:23;100298.95;;;12.97;65.95
61474;BME280;53694;49.784;30.150;2022-09-03T02:29:26;100300.91;;;12.97;66.08
61474;BME280;53694;49.784;30.150;2022-09-03T02:30:28;100306.34;;;12.93;66.03
61474;BME280;53694;49.784;30.150;2022-09-03T02:31:30;100310.98;;;12.89;66.09
61474;BME280;53694;49.784;30.150;2022-09-03T02:32:32;100314.45;;;12.86;65.94
61474;BME280;53694;49.784;30.150;2022-09-03T02:33:38;100306.92;;;12.83;66.21
61474;BME280;53694;49.784;30.150;2022-09-03T02:34:41;100304.50;;;12.82;66.33
61474;BME280;53694;49.784;30.150;2022-09-03T02:35:43;100302.91;;;12.81;66.66
61474;BME280;53694;49.784;30.150;2022-09-03T02:36:46;100296.15;;;12.78;66.60
61474;BME280;53694;49.784;30.150;2022-09-03T02:37:48;100302.03;;;12.76;66.54
61474;BME280;53694;49.784;30.150;2022-09-03T02:38:49;100301.66;;;12.78;67.14
61474;BME280;53694;49.784;30.150;2022-09-03T02:39:51;100302.48;;;12.79;67.78
61474;BME280;53694;49.784;30.150;2022-09-03T02:40:53;100301.66;;;12.78;68.45
61474;BME280;53694;49.784;30.150;2022-09-03T02:41:56;100301.32;;;12.80;68.80
61474;BME280;53694;49.784;30.150;2022-09-03T02:42:59;100313.14;;;12.80;68.42
61474;BME280;53694;49.784;30.150;2022-09-03T02:44:16;100301.75;;;12.82;68.71
61474;BME280;53694;49.784;30.150;2022-09-03T02:45:26;100307.72;;;12.84;69.05
61474;BME280;53694;49.784;30.150;2022-09-03T02:46:31;100308.51;;;12.84;68.98
61474;BME280;53694;49.784;30.150;2022-09-03T02:47:33;100311.69;;;12.86;69.46
61474;BME280;53694;49.784;30.150;2022-09-03T02:48:37;100303.88;;;12.88;69.55
61474;BME280;53694;49.784;30.150;2022-09-03T02:49:38;100301.12;;;12.88;69.57
61474;BME280;53694;49.784;30.150;2022-09-03T02:50:40;100302.70;;;12.89;69.99
61474;BME280;53694;49.784;30.150;2022-09-03T02:51:43;100305.47;;;12.89;69.65
61474;BME280;53694;49.784;30.150;2022-09-03T02:52:44;100301.12;;;12.88;68.97
61474;BME280;53694;49.784;30.150;2022-09-03T02:53:46;100302.28;;;12.87;68.28
61474;BME280;53694;49.784;30.150;2022-09-03T02:54:48;100297.11;;;12.86;68.56
61474;BME280;53694;49.784;30.150;2022-09-03T02:55:49;100299.07;;;12.85;68.71
61474;BME280;53694;49.784;30.150;2022-09-03T02:56:51;100308.51;;;12.84;69.43
61474;BME280;53694;49.784;30.150;2022-09-03T02:57:53;100305.30;;;12.82;68.89
61474;BME280;53694;49.784;30.150;2022-09-03T02:58:55;100298.20;;;12.81;68.59
61474;BME280;53694;49.784;30.150;2022-09-03T02:59:56;100293.84;;;12.80;69.16
61474;BME280;53694;49.784;30.150;2022-09-03T03:00:58;100295.81;;;12.80;69.76
61474;BME280;53694;49.784;30.150;2022-09-03T03:02:01;100294.64;;;12.81;70.09
61474;BME280;53694;49.784;30.150;2022-09-03T03:03:03;100299.78;;;12.82;70.54
61474;BME280;53694;49.784;30.150;2022-09-03T03:04:06;100315.61;;;12.85;70.46
61474;BME280;53694;49.784;30.150;2022-09-03T03:05:08;100300.83;;;12.93;69.04
61474;BME280;53694;49.784;30.150;2022-09-03T03:06:13;100297.44;;;13.19;68.38
61474;BME280;53694;49.784;30.150;2022-09-03T03:07:14;100298.30;;;13.62;67.29
61474;BME280;53694;49.784;30.150;2022-09-03T03:08:18;100297.80;;;13.99;66.26
61474;BME280;53694;49.784;30.150;2022-09-03T03:09:20;100300.98;;;14.24;65.51
61474;BME280;53694;49.784;30.150;2022-09-03T03:10:22;100303.55;;;14.36;64.78
61474;BME280;53694;49.784;30.150;2022-09-03T03:11:24;100308.70;;;14.38;64.85
61474;BME280;53694;49.784;30.150;2022-09-03T03:12:26;100309.02;;;14.33;65.45
61474;BME280;53694;49.784;30.150;2022-09-03T03:13:28;100310.45;;;14.23;65.83
61474;BME280;53694;49.784;30.150;2022-09-03T03:14:30;100308.28;;;14.13;66.05
61474;BME280;53694;49.784;30.150;2022-09-03T03:15:32;100312.02;;;14.01;66.51
61474;BME280;53694;49.784;30.150;2022-09-03T03:16:34;100310.67;;;13.91;67.02
61474;BME280;53694;49.784;30.150;2022-09-03T03:17:36;100314.05;;;13.81;67.36
61474;BME280;53694;49.784;30.150;2022-09-03T03:18:38;100308.77;;;13.72;67.83
61474;BME280;53694;49.784;30.150;2022-09-03T03:19:39;100316.45;;;13.63;68.17
61474;BME280;53694;49.784;30.150;2022-09-03T03:20:42;100315.89;;;13.54;68.86
61474;BME280;53694;49.784;30.150;2022-09-03T03:21:44;100315.32;;;13.45;69.52
61474;BME280;53694;49.784;30.150;2022-09-03T03:22:45;100312.06;;;13.39;69.80
61474;BME280;53694;49.784;30.150;2022-09-03T03:23:47;100308.78;;;13.34;70.22
61474;BME280;53694;49.784;30.150;2022-09-03T03:24:49;100313.45;;;13.30;70.49
61474;BME280;53694;49.784;30.150;2022-09-03T03:25:50;100307.86;;;13.26;70.33
61474;BME280;53694;49.784;30.150;2022-09-03T03:26:55;100320.64;;;13.34;70.50
61474;BME280;53694;49.784;30.150;2022-09-03T03:27:57;100315.09;;;13.54;70.19
61474;BME280;53694;49.784;30.150;2022-09-03T03:29:00;100313.02;;;13.89;68.82
61474;BME280;53694;49.784;30.150;2022-09-03T03:30:02;100315.66;;;14.28;66.81
61474;BME280;53694;49.784;30.150;2022-09-03T03:31:12;100306.47;;;14.70;65.27
61474;BME280;53694;49.784;30.150;2022-09-03T03:32:14;100313.23;;;15.03;64.27
61474;BME280;53694;49.784;30.150;2022-09-03T03:33:16;100316.27;;;15.24;63.53
61474;BME280;53694;49.784;30.150;2022-09-03T03:34:17;100312.76;;;15.27;63.27
61474;BME280;53694;49.784;30.150;2022-09-03T03:35:19;100311.91;;;15.23;63.16
61474;BME280;53694;49.784;30.150;2022-09-03T03:36:23;100319.66;;;15.10;63.25
61474;BME280;53694;49.784;30.150;2022-09-03T03:37:25;100321.80;;;14.94;63.20
61474;BME280;53694;49.784;30.150;2022-09-03T03:38:27;100324.70;;;14.74;63.62
61474;BME280;53694;49.784;30.150;2022-09-03T03:39:29;100322.82;;;14.56;64.04
61474;BME280;53694;49.784;30.150;2022-09-03T03:40:31;100312.25;;;14.38;64.59
61474;BME280;53694;49.784;30.150;2022-09-03T03:41:34;100315.97;;;14.23;65.00
61474;BME280;53694;49.784;30.150;2022-09-03T03:42:37;100314.13;;;14.08;65.40
61474;BME280;53694;49.784;30.150;2022-09-03T03:43:38;100322.58;;;13.95;66.24
61474;BME280;53694;49.784;30.150;2022-09-03T03:44:40;100314.84;;;13.82;66.76
61474;BME280;53694;49.784;30.150;2022-09-03T03:45:42;100316.53;;;13.67;66.92
61474;BME280;53694;49.784;30.150;2022-09-03T03:46:43;100317.86;;;13.54;67.22
61474;BME280;53694;49.784;30.150;2022-09-03T03:47:45;100312.86;;;13.40;67.15
61474;BME280;53694;49.784;30.150;2022-09-03T03:48:48;100327.59;;;13.28;67.92
61474;BME280;53694;49.784;30.150;2022-09-03T03:49:49;100322.63;;;13.18;68.24
61474;BME280;53694;49.784;30.150;2022-09-03T03:50:52;100326.02;;;13.11;68.84
61474;BME280;53694;49.784;30.150;2022-09-03T03:51:53;100321.59;;;13.07;69.06
61474;BME280;53694;49.784;30.150;2022-09-03T03:52:59;100325.44;;;13.02;69.27
61474;BME280;53694;49.784;30.150;2022-09-03T03:54:01;100325.35;;;12.98;69.51
61474;BME280;53694;49.784;30.150;2022-09-03T03:55:04;100318.96;;;12.94;69.82
61474;BME280;53694;49.784;30.150;2022-09-03T03:56:08;100319.70;;;12.91;70.24
61474;BME280;53694;49.784;30.150;2022-09-03T03:57:10;100319.63;;;12.88;70.49
61474;BME280;53694;49.784;30.150;2022-09-03T03:58:12;100330.56;;;12.84;71.16
61474;BME280;53694;49.784;30.150;2022-09-03T03:59:13;100330.28;;;12.89;71.41
61474;BME280;53694;49.784;30.150;2022-09-03T04:00:16;100321.22;;;13.08;70.88
61474;BME280;53694;49.784;30.150;2022-09-03T04:01:20;100319.63;;;13.42;70.16
61474;BME280;53694;49.784;30.150;2022-09-03T04:02:22;100323.20;;;13.85;69.20
61474;BME280;53694;49.784;30.150;2022-09-03T04:03:24;100326.39;;;14.33;68.00
61474;BME280;53694;49.784;30.150;2022-09-03T04:04:26;100325.91;;;14.77;66.39
61474;BME280;53694;49.784;30.150;2022-09-03T04:05:27;100334.28;;;15.11;64.93
61474;BME280;53694;49.784;30.150;2022-09-03T04:06:29;100330.55;;;15.26;64.34
61474;BME280;53694;49.784;30.150;2022-09-03T04:07:31;100331.72;;;15.25;63.52
61474;BME280;53694;49.784;30.150;2022-09-03T04:08:35;100334.72;;;15.13;63.50
61474;BME280;53694;49.784;30.150;2022-09-03T04:09:36;100335.30;;;14.99;64.14
61474;BME280;53694;49.784;30.150;2022-09-03T04:10:38;100327.94;;;14.80;64.96
61474;BME280;53694;49.784;30.150;2022-09-03T04:11:40;100329.64;;;14.62;65.37
61474;BME280;53694;49.784;30.150;2022-09-03T04:12:42;100325.75;;;14.43;66.31
61474;BME280;53694;49.784;30.150;2022-09-03T04:13:44;100325.53;;;14.29;67.22
61474;BME280;53694;49.784;30.150;2022-09-03T04:14:46;100319.33;;;14.13;68.02
61474;BME280;53694;49.784;30.150;2022-09-03T04:15:47;100324.62;;;13.98;69.09
61474;BME280;53694;49.784;30.150;2022-09-03T04:16:49;100329.06;;;13.84;70.22
61474;BME280;53694;49.784;30.150;2022-09-03T04:17:53;100328.44;;;13.71;71.27
61474;BME280;53694;49.784;30.150;2022-09-03T04:18:55;100325.11;;;13.62;71.36
61474;BME280;53694;49.784;30.150;2022-09-03T04:19:57;100329.84;;;13.61;71.81
61474;BME280;53694;49.784;30.150;2022-09-03T04:21:08;100326.61;;;13.79;71.30
61474;BME280;53694;49.784;30.150;2022-09-03T04:22:10;100325.17;;;14.08;70.69
61474;BME280;53694;49.784;30.150;2022-09-03T04:23:11;100336.96;;;14.50;68.58
61474;BME280;53694;49.784;30.150;2022-09-03T04:24:13;100336.02;;;14.92;67.10
61474;BME280;53694;49.784;30.150;2022-09-03T04:25:15;100331.05;;;15.35;65.92
61474;BME280;53694;49.784;30.150;2022-09-03T04:26:28;100329.48;;;15.68;63.96
61474;BME280;53694;49.784;30.150;2022-09-03T04:27:30;100329.23;;;15.84;63.04
61474;BME280;53694;49.784;30.150;2022-09-03T04:28:32;100325.28;;;15.81;61.98
61474;BME280;53694;49.784;30.150;2022-09-03T04:29:34;100329.48;;;15.68;62.57
61474;BME280;53694;49.784;30.150;2022-09-03T04:30:36;100330.80;;;15.47;63.53
61474;BME280;53694;49.784;30.150;2022-09-03T04:31:38;100326.19;;;15.25;64.67
61474;BME280;53694;49.784;30.150;2022-09-03T04:32:40;100325.47;;;15.02;65.74
61474;BME280;53694;49.784;30.150;2022-09-03T04:33:42;100334.64;;;14.79;66.56
61474;BME280;53694;49.784;30.150;2022-09-03T04:34:43;100331.97;;;14.60;67.48
61474;BME280;53694;49.784;30.150;2022-09-03T04:35:45;100329.69;;;14.42;68.83
61474;BME280;53694;49.784;30.150;2022-09-03T04:36:47;100329.81;;;14.26;69.23
61474;BME280;53694;49.784;30.150;2022-09-03T04:37:48;100323.69;;;14.14;69.74
61474;BME280;53694;49.784;30.150;2022-09-03T04:38:52;100327.45;;;14.02;69.89
61474;BME280;53694;49.784;30.150;2022-09-03T04:39:54;100322.44;;;13.88;69.77
61474;BME280;53694;49.784;30.150;2022-09-03T04:40:56;100322.19;;;13.74;70.47
61474;BME280;53694;49.784;30.150;2022-09-03T04:41:57;100321.98;;;13.63;71.12
61474;BME280;53694;49.784;30.150;2022-09-03T04:42:59;100327.30;;;13.53;71.45
61474;BME280;53694;49.784;30.150;2022-09-03T04:44:01;100324.96;;;13.55;71.58
61474;BME280;53694;49.784;30.150;2022-09-03T04:45:03;100328.44;;;13.71;71.56
61474;BME280;53694;49.784;30.150;2022-09-03T04:46:06;100326.62;;;14.01;71.25
61474;BME280;53694;49.784;30.150;2022-09-03T04:47:07;100327.31;;;14.41;70.32
61474;BME280;53694;49.784;30.150;2022-09-03T04:48:09;100322.52;;;14.87;68.95
61474;BME280;53694;49.784;30.150;2022-09-03T04:49:11;100320.72;;;15.32;67.32
61474;BME280;53694;49.784;30.150;2022-09-03T04:50:13;100326.78;;;15.75;65.38
61474;BME280;53694;49.784;30.150;2022-09-03T04:51:16;100325.09;;;16.04;63.94
61474;BME280;53694;49.784;30.150;2022-09-03T04:52:18;100328.73;;;16.12;63.31
61474;BME280;53694;49.784;30.150;2022-09-03T04:53:20;100331.39;;;16.01;63.29
61474;BME280;53694;49.784;30.150;2022-09-03T04:54:22;100322.87;;;15.80;63.96
61474;BME280;53694;49.784;30.150;2022-09-03T04:55:24;100329.23;;;15.50;64.95
61474;BME280;53694;49.784;30.150;2022-09-03T04:56:31;100319.03;;;15.24;65.87
61474;BME280;53694;49.784;30.150;2022-09-03T04:57:33;100325.80;;;14.96;67.13
61474;BME280;53694;49.784;30.150;2022-09-03T04:58:34;100333.34;;;14.73;68.41
61474;BME280;53694;49.784;30.150;2022-09-03T04:59:36;100333.02;;;14.52;69.43
61474;BME280;53694;49.784;30.150;2022-09-03T05:00:38;100342.91;;;14.30;70.23
61474;BME280;53694;49.784;30.150;2022-09-03T05:01:39;100329.97;;;14.11;71.19
61474;BME280;53694;49.784;30.150;2022-09-03T05:02:41;100343.16;;;13.98;71.77
61474;BME280;53694;49.784;30.150;2022-09-03T05:03:43;100339.53;;;13.94;72.14
61474;BME280;53694;49.784;30.150;2022-09-03T05:04:46;100341.67;;;14.04;71.82
61474;BME280;53694;49.784;30.150;2022-09-03T05:05:55;100335.78;;;14.29;71.08
61474;BME280;53694;49.784;30.150;2022-09-03T05:06:57;100338.73;;;14.62;70.35
61474;BME280;53694;49.784;30.150;2022-09-03T05:07:59;100346.42;;;15.03;69.10
61474;BME280;53694;49.784;30.150;2022-09-03T05:09:01;100341.73;;;15.37;67.62
61474;BME280;53694;49.784;30.150;2022-09-03T05:10:06;100333.05;;;15.68;66.20
61474;BME280;53694;49.784;30.150;2022-09-03T05:11:08;100331.69;;;15.89;65.44
61474;BME280;53694;49.784;30.150;2022-09-03T05:12:10;100334.07;;;15.90;65.00
61474;BME280;53694;49.784;30.150;2022-09-03T05:13:12;100330.81;;;15.81;65.76
61474;BME280;53694;49.784;30.150;2022-09-03T05:14:14;100331.47;;;15.67;66.18
61474;BME280;53694;49.784;30.150;2022-09-03T05:15:15;100341.48;;;15.49;66.20
61474;BME280;53694;49.784;30.150;2022-09-03T05:16:18;100333.36;;;15.30;66.70
61474;BME280;53694;49.784;30.150;2022-09-03T05:17:20;100347.27;;;15.07;67.56
61474;BME280;53694;49.784;30.150;2022-09-03T05:18:21;100346.96;;;14.85;68.46
61474;BME280;53694;49.784;30.150;2022-09-03T05:19:23;100341.05;;;14.60;69.33
61474;BME280;53694;49.784;30.150;2022-09-03T05:20:25;100341.48;;;14.39;70.59
61474;BME280;53694;49.784;30.150;2022-09-03T05:21:28;100330.20;;;14.25;71.51
61474;BME280;53694;49.784;30.150;2022-09-03T05:22:30;100337.88;;;14.12;72.15
61474;BME280;53694;49.784;30.150;2022-09-03T05:23:40;100325.23;;;14.11;72.91
61474;BME280;53694;49.784;30.150;2022-09-03T05:24:42;100333.75;;;14.25;73.10
61474;BME280;53694;49.784;30.150;2022-09-03T05:25:53;100334.61;;;14.53;71.67
61474;BME280;53694;49.784;30.150;2022-09-03T05:26:49;100337.48;;;14.86;71.19
61474;BME280;53694;49.784;30.150;2022-09-03T05:27:51;100330.89;;;15.24;70.02
61474;BME280;53694;49.784;30.150;2022-09-03T05:28:54;100331.70;;;15.59;68.40
61474;BME280;53694;49.784;30.150;2022-09-03T05:29:56;100326.99;;;15.96;67.21
61474;BME280;53694;49.784;30.150;2022-09-03T05:31:04;100337.20;;;16.30;65.32
61474;BME280;53694;49.784;30.150;2022-09-03T05:32:06;100335.79;;;16.50;64.95
61474;BME280;53694;49.784;30.150;2022-09-03T05:33:08;100343.38;;;16.57;64.17
61474;BME280;53694;49.784;30.150;2022-09-03T05:34:10;100337.70;;;16.42;64.00
61474;BME280;53694;49.784;30.150;2022-09-03T05:35:11;100346.31;;;16.30;64.43
61474;BME280;53694;49.784;30.150;2022-09-03T05:36:16;100344.17;;;16.13;64.73
61474;BME280;53694;49.784;30.150;2022-09-03T05:37:18;100343.97;;;15.91;65.50
61474;BME280;53694;49.784;30.150;2022-09-03T05:38:20;100343.34;;;15.71;66.52
61474;BME280;53694;49.784;30.150;2022-09-03T05:39:21;100344.70;;;15.55;66.76
61474;BME280;53694;49.784;30.150;2022-09-03T05:40:24;100344.16;;;15.42;67.15
61474;BME280;53694;49.784;30.150;2022-09-03T05:41:26;100345.96;;;15.27;67.38
61474;BME280;53694;49.784;30.150;2022-09-03T05:42:28;100333.55;;;15.14;67.74
61474;BME280;53694;49.784;30.150;2022-09-03T05:43:31;100349.56;;;15.01;68.03
61474;BME280;53694;49.784;30.150;2022-09-03T05:44:33;100346.22;;;14.88;68.63
61474;BME280;53694;49.784;30.150;2022-09-03T05:45:35;100337.34;;;14.75;69.29
61474;BME280;53694;49.784;30.150;2022-09-03T05:46:37;100337.50;;;14.60;69.69
61474;BME280;53694;49.784;30.150;2022-09-03T05:47:39;100342.33;;;14.43;70.21
61474;BME280;53694;49.784;30.150;2022-09-03T05:48:40;100339.34;;;14.29;70.51
61474;BME280;53694;49.784;30.150;2022-09-03T05:49:42;100333.21;;;14.16;70.75
61474;BME280;53694;49.784;30.150;2022-09-03T05:50:44;100341.12;;;14.18;71.48
61474;BME280;53694;49.784;30.150;2022-09-03T05:51:45;100331.53;;;14.35;71.12
61474;BME280;53694;49.784;30.150;2022-09-03T05:52:47;100331.61;;;14.61;70.53
61474;BME280;53694;49.784;30.150;2022-09-03T05:53:49;100335.27;;;14.95;69.98
61474;BME280;53694;49.784;30.150;2022-09-03T05:54:50;100330.61;;;15.33;68.79
61474;BME280;53694;49.784;30.150;2022-09-03T05:55:56;100326.38;;;15.73;67.46
61474;BME280;53694;49.784;30.150;2022-09-03T05:56:59;100326.32;;;16.07;66.70
61474;BME280;53694;49.784;30.150;2022-09-03T05:58:00;100332.41;;;16.23;65.22
61474;BME280;53694;49.784;30.150;2022-09-03T05:59:04;100328.45;;;16.24;64.73
61474;BME280;53694;49.784;30.150;2022-09-03T06:00:07;100329.56;;;16.16;64.93
61474;BME280;53694;49.784;30.150;2022-09-03T06:01:11;100329.05;;;16.03;65.52
61474;BME280;53694;49.784;30.150;2022-09-03T06:02:13;100332.88;;;15.91;66.11
61474;BME280;53694;49.784;30.150;2022-09-03T06:03:15;100324.05;;;15.79;66.42
61474;BME280;53694;49.784;30.150;2022-09-03T06:04:17;100336.18;;;15.67;66.41
61474;BME280;53694;49.784;30.150;2022-09-03T06:05:19;100338.81;;;15.56;66.52
61474;BME280;53694;49.784;30.150;2022-09-03T06:06:21;100329.53;;;15.41;66.69
61474;BME280;53694;49.784;30.150;2022-09-03T06:07:23;100327.00;;;15.29;66.87
61474;BME280;53694;49.784;30.150;2022-09-03T06:08:25;100337.89;;;15.15;67.10
61474;BME280;53694;49.784;30.150;2022-09-03T06:09:27;100336.07;;;14.96;67.83
61474;BME280;53694;49.784;30.150;2022-09-03T06:10:29;100319.97;;;14.75;68.09
61474;BME280;53694;49.784;30.150;2022-09-03T06:11:32;100318.87;;;14.57;68.59
61474;BME280;53694;49.784;30.150;2022-09-03T06:12:34;100319.81;;;14.41;69.24
61474;BME280;53694;49.784;30.150;2022-09-03T06:13:36;100317.30;;;14.33;70.02
61474;BME280;53694;49.784;30.150;2022-09-03T06:14:38;100315.21;;;14.26;70.20
61474;BME280;53694;49.784;30.150;2022-09-03T06:15:39;100312.77;;;14.21;70.55
61474;BME280;53694;49.784;30.150;2022-09-03T06:16:43;100316.00;;;14.26;70.45
61474;BME280;53694;49.784;30.150;2022-09-03T06:17:45;100319.49;;;14.46;70.47